createdAt,value
2022-12-15T00:01:25.699Z,63.20
2022-12-15T00:04:12.886Z,62.10
2022-12-15T00:06:59.244Z,57.70
2022-12-15T00:09:49.573Z,67.80
2022-12-15T00:12:36.134Z,60.10
2022-12-15T00:15:26.925Z,58.20
2022-12-15T00:18:13.482Z,54.70
2022-12-15T00:20:59.828Z,51.30
2022-12-15T00:23:46.132Z,51.80
2022-12-15T00:26:32.556Z,48.40
2022-12-15T00:29:18.929Z,50.20
2022-12-15T00:32:07.332Z,52.20
2022-12-15T00:34:53.632Z,53.50
2022-12-15T00:37:40.306Z,51.60
2022-12-15T00:40:11.170Z,52.20
2022-12-15T00:42:39.316Z,56.30
2022-12-15T00:45:11.162Z,50.30
2022-12-15T00:47:42.206Z,53.40
2022-12-15T00:50:29.147Z,51.80
2022-12-15T00:53:15.963Z,54.60
2022-12-15T00:56:02.753Z,46.60
2022-12-15T00:58:49.298Z,51.20
2022-12-15T01:01:35.752Z,48.60
2022-12-15T01:04:24.110Z,42.00
2022-12-15T01:07:10.596Z,38.30
2022-12-15T01:09:57.360Z,38.40
2022-12-15T01:12:43.814Z,32.60
2022-12-15T01:15:35.081Z,35.50
2022-12-15T01:18:24.156Z,35.20
2022-12-15T01:21:00.508Z,33.70
2022-12-15T01:23:38.038Z,31.90
2022-12-15T01:26:09.637Z,29.40
2022-12-15T01:28:37.784Z,28.10
2022-12-15T01:31:16.664Z,27.50
2022-12-15T01:33:44.721Z,27.00
2022-12-15T01:36:12.777Z,27.80
2022-12-15T01:38:40.610Z,25.30
2022-12-15T01:41:16.180Z,26.70
2022-12-15T01:43:44.212Z,26.00
2022-12-15T01:46:22.222Z,25.30
2022-12-15T01:49:15.859Z,26.10
2022-12-15T01:51:52.550Z,22.80
2022-12-15T01:54:27.557Z,25.40
2022-12-15T01:57:04.225Z,24.20
2022-12-15T01:59:40.980Z,23.00
2022-12-15T02:02:09.125Z,27.00
2022-12-15T02:04:42.306Z,24.50
2022-12-15T02:07:17.480Z,24.60
2022-12-15T02:09:51.157Z,23.70
2022-12-15T02:15:31.800Z,24.40
2022-12-15T02:20:46.156Z,24.30
2022-12-15T02:23:28.948Z,19.80
2022-12-15T02:26:26.379Z,24.90
2022-12-15T02:29:16.188Z,24.50
2022-12-15T02:31:52.401Z,25.60
2022-12-15T02:35:00.006Z,28.20
2022-12-15T02:37:43.070Z,27.50
2022-12-15T02:40:14.010Z,24.30
2022-12-15T02:42:51.745Z,24.80
2022-12-15T02:45:32.370Z,25.80
2022-12-15T02:48:34.362Z,26.90
2022-12-15T02:51:05.640Z,26.00
2022-12-15T02:56:16.679Z,25.50
2022-12-15T02:58:56.672Z,27.50
2022-12-15T03:01:50.773Z,27.60
2022-12-15T03:04:23.650Z,27.10
2022-12-15T03:07:03.982Z,27.20
2022-12-15T03:09:36.090Z,25.00
2022-12-15T03:12:08.418Z,23.50
2022-12-15T03:14:36.283Z,26.40
2022-12-15T03:17:11.284Z,28.50
2022-12-15T03:19:43.398Z,27.10
2022-12-15T03:22:11.734Z,27.80
2022-12-15T03:24:40.667Z,23.20
2022-12-15T03:27:09.734Z,25.20
2022-12-15T03:29:41.719Z,25.60
2022-12-15T03:32:09.751Z,25.00
2022-12-15T03:34:46.007Z,24.00
2022-12-15T03:37:13.864Z,29.40
2022-12-15T03:39:41.705Z,29.50
2022-12-15T03:42:09.586Z,26.90
2022-12-15T03:44:41.743Z,26.60
2022-12-15T03:47:09.578Z,27.60
2022-12-15T03:49:37.409Z,27.50
2022-12-15T03:52:05.461Z,29.20
2022-12-15T03:54:33.228Z,25.50
2022-12-15T03:57:01.043Z,25.40
2022-12-15T03:59:33.273Z,27.60
2022-12-15T04:02:01.495Z,26.20
2022-12-15T04:04:33.125Z,26.90
2022-12-15T04:07:01.282Z,26.30
2022-12-15T04:09:31.660Z,28.90
2022-12-15T04:11:59.685Z,27.50
2022-12-15T04:14:34.244Z,29.40
2022-12-15T04:17:02.140Z,27.20
2022-12-15T04:19:52.910Z,30.70
2022-12-15T04:22:25.886Z,28.30
2022-12-15T04:25:12.493Z,27.50
2022-12-15T04:28:01.664Z,27.70
2022-12-15T04:30:54.311Z,29.40
2022-12-15T04:33:48.224Z,26.00
2022-12-15T04:36:39.010Z,28.60
2022-12-15T04:39:25.840Z,26.60
2022-12-15T04:42:17.154Z,26.90
2022-12-15T04:45:08.572Z,26.70
2022-12-15T04:47:55.317Z,29.10
2022-12-15T04:50:42.179Z,30.20
2022-12-15T04:53:35.355Z,28.30
2022-12-15T04:56:30.689Z,31.00
2022-12-15T04:59:21.746Z,27.60
2022-12-15T05:02:08.875Z,31.90
2022-12-15T05:04:55.536Z,29.70
2022-12-15T05:07:46.701Z,31.80
2022-12-15T05:10:33.471Z,30.00
2022-12-15T05:13:28.371Z,30.10
2022-12-15T05:16:18.640Z,28.00
2022-12-15T05:19:06.256Z,28.50
2022-12-15T05:21:52.962Z,28.50
2022-12-15T05:24:39.203Z,34.00
2022-12-15T05:27:25.989Z,32.00
2022-12-15T05:30:16.565Z,33.30
2022-12-15T05:32:44.658Z,28.10
2022-12-15T05:35:13.760Z,29.40
2022-12-15T05:37:41.865Z,31.30
2022-12-15T05:40:13.745Z,32.40
2022-12-15T05:42:41.782Z,30.10
2022-12-15T05:45:12.188Z,31.70
2022-12-15T05:47:40.018Z,30.40
2022-12-15T05:50:10.860Z,30.60
2022-12-15T05:52:38.900Z,31.30
2022-12-15T05:55:09.938Z,31.40
2022-12-15T05:57:41.060Z,33.50
2022-12-15T06:00:13.177Z,31.90
2022-12-15T06:02:41.328Z,32.90
2022-12-15T06:05:11.651Z,31.20
2022-12-15T06:07:39.701Z,30.70
2022-12-15T06:10:11.423Z,31.30
2022-12-15T06:12:39.314Z,29.80
2022-12-15T06:15:10.307Z,34.50
2022-12-15T06:17:38.159Z,33.90
2022-12-15T06:20:09.931Z,36.90
2022-12-15T06:22:37.996Z,37.30
2022-12-15T06:25:09.965Z,29.30
2022-12-15T06:27:38.184Z,35.70
2022-12-15T06:30:10.115Z,32.00
2022-12-15T06:32:37.988Z,33.10
2022-12-15T06:35:09.937Z,32.10
2022-12-15T06:37:38.083Z,32.20
2022-12-15T06:40:10.574Z,31.40
2022-12-15T06:42:38.676Z,30.40
2022-12-15T06:45:10.709Z,30.60
2022-12-15T06:47:38.770Z,30.40
2022-12-15T06:50:12.074Z,33.40
2022-12-15T06:52:40.115Z,31.30
2022-12-15T06:55:12.488Z,31.70
2022-12-15T06:57:40.591Z,29.70
2022-12-15T07:00:15.623Z,33.00
2022-12-15T07:02:43.812Z,31.60
2022-12-15T07:05:25.198Z,28.80
2022-12-15T07:07:56.048Z,29.30
2022-12-15T07:10:24.035Z,29.70
2022-12-15T07:12:51.862Z,31.20
2022-12-15T07:15:19.716Z,32.50
2022-12-15T07:17:51.232Z,31.10
2022-12-15T07:20:21.825Z,31.40
2022-12-15T07:22:58.617Z,32.30
2022-12-15T07:25:29.077Z,34.80
2022-12-15T07:27:57.053Z,31.70
2022-12-15T07:30:25.115Z,30.00
2022-12-15T07:32:57.202Z,31.40
2022-12-15T07:35:29.611Z,29.60
2022-12-15T07:38:05.664Z,31.40
2022-12-15T07:40:38.005Z,31.80
2022-12-15T07:43:05.827Z,32.60
2022-12-15T07:45:33.716Z,33.50
2022-12-15T07:48:02.881Z,32.10
2022-12-15T07:50:30.956Z,30.30
2022-12-15T07:53:01.605Z,32.80
2022-12-15T07:55:57.206Z,34.70
2022-12-15T07:58:17.507Z,29.60
2022-12-15T08:00:48.847Z,35.60
2022-12-15T08:03:21.357Z,31.80
2022-12-15T08:06:03.782Z,32.30
2022-12-15T08:08:36.660Z,34.10
2022-12-15T08:11:14.365Z,33.80
2022-12-15T08:14:03.979Z,30.00
2022-12-15T08:16:40.640Z,31.90
2022-12-15T08:19:16.922Z,34.20
2022-12-15T08:21:49.949Z,33.30
2022-12-15T08:24:22.027Z,35.40
2022-12-15T08:26:54.281Z,38.40
2022-12-15T08:29:50.191Z,38.00
2022-12-15T08:32:10.468Z,36.70
2022-12-15T08:34:49.106Z,36.60
2022-12-15T08:37:17.009Z,39.60
2022-12-15T08:39:53.703Z,38.00
2022-12-15T08:42:22.597Z,40.60
2022-12-15T08:44:50.526Z,40.30
2022-12-15T08:47:18.373Z,45.30
2022-12-15T08:49:46.209Z,40.90
2022-12-15T08:52:18.095Z,42.40
2022-12-15T08:54:45.954Z,42.40
2022-12-15T08:57:13.889Z,39.90
2022-12-15T08:59:44.127Z,42.60
2022-12-15T09:02:17.055Z,44.70
2022-12-15T09:04:49.575Z,40.70
2022-12-15T09:07:20.414Z,48.20
2022-12-15T09:09:51.006Z,43.90
2022-12-15T09:12:19.059Z,47.50
2022-12-15T09:14:46.958Z,46.00
2022-12-15T09:17:18.923Z,44.50
2022-12-15T09:19:51.180Z,48.50
2022-12-15T09:22:21.947Z,44.50
2022-12-15T09:24:54.461Z,43.40
2022-12-15T09:27:22.369Z,46.00
2022-12-15T09:29:52.624Z,45.10
2022-12-15T09:32:20.700Z,46.40
2022-12-15T09:34:53.913Z,48.70
2022-12-15T09:37:22.035Z,47.20
2022-12-15T09:39:49.884Z,48.80
2022-12-15T09:42:28.359Z,45.70
2022-12-15T09:45:12.514Z,49.60
2022-12-15T09:47:57.993Z,47.50
2022-12-15T09:50:41.040Z,47.60
2022-12-15T09:53:53.112Z,41.60
2022-12-15T09:56:21.687Z,46.20
2022-12-15T09:59:30.694Z,45.50
2022-12-15T10:02:21.661Z,42.40
2022-12-15T10:05:57.627Z,46.90
2022-12-15T10:08:28.227Z,45.30
2022-12-15T10:11:04.075Z,47.40
2022-12-15T10:13:46.219Z,48.10
2022-12-15T10:16:50.229Z,47.20
2022-12-15T10:19:49.954Z,50.90
2022-12-15T10:22:39.792Z,49.20
2022-12-15T10:25:30.179Z,48.80
2022-12-15T10:28:21.817Z,51.50
2022-12-15T10:31:02.481Z,50.50
2022-12-15T10:33:47.060Z,47.60
2022-12-15T10:36:22.839Z,46.40
2022-12-15T10:38:50.862Z,48.90
2022-12-15T10:41:31.887Z,47.10
2022-12-15T10:43:59.777Z,44.40
2022-12-15T10:46:36.365Z,48.40
2022-12-15T10:49:07.517Z,48.40
2022-12-15T10:52:00.691Z,52.80
2022-12-15T10:54:48.402Z,52.10
2022-12-15T10:57:23.541Z,52.30
2022-12-15T10:59:56.628Z,51.10
2022-12-15T11:02:34.761Z,56.50
2022-12-15T11:05:16.679Z,50.60
2022-12-15T11:07:52.823Z,53.70
2022-12-15T11:10:53.532Z,54.10
2022-12-15T11:13:33.016Z,59.40
2022-12-15T11:16:16.691Z,60.30
2022-12-15T11:19:10.307Z,59.20
2022-12-15T11:21:56.510Z,58.30
2022-12-15T11:24:48.880Z,55.80
2022-12-15T11:27:25.269Z,57.70
2022-12-15T11:30:10.973Z,56.30
2022-12-15T11:32:47.305Z,54.50
2022-12-15T11:35:46.213Z,55.40
2022-12-15T11:38:49.398Z,59.70
2022-12-15T11:41:38.604Z,55.20
2022-12-15T11:44:24.719Z,56.90
2022-12-15T11:47:01.477Z,63.70
2022-12-15T11:50:04.946Z,65.90
2022-12-15T11:52:58.855Z,57.80
2022-12-15T11:55:58.025Z,62.70
2022-12-15T11:58:44.029Z,57.10
2022-12-15T12:01:43.121Z,65.10
2022-12-15T12:04:28.177Z,66.60
2022-12-15T12:07:24.021Z,70.70
2022-12-15T12:10:28.054Z,63.20
2022-12-15T12:13:18.500Z,67.20
2022-12-15T12:16:13.099Z,65.80
2022-12-15T12:19:19.624Z,69.00
2022-12-15T12:21:56.820Z,65.60
2022-12-15T12:24:51.001Z,74.80
2022-12-15T12:27:53.460Z,73.20
2022-12-15T12:30:34.723Z,72.90
2022-12-15T12:33:03.937Z,66.70
2022-12-15T12:35:56.614Z,68.10
2022-12-15T12:38:56.371Z,68.40
2022-12-15T12:41:31.491Z,67.20
2022-12-15T12:44:14.105Z,74.10
2022-12-15T12:46:54.462Z,72.40
2022-12-15T12:49:37.748Z,79.70
2022-12-15T12:52:26.237Z,69.60
2022-12-15T12:55:21.458Z,71.70
2022-12-15T12:57:54.290Z,74.60
2022-12-15T13:00:28.490Z,57.40
2022-12-15T13:02:59.718Z,70.90
2022-12-15T13:05:37.940Z,72.30
2022-12-15T13:08:06.161Z,69.20
2022-12-15T13:10:47.526Z,70.10
2022-12-15T13:13:32.522Z,68.60
2022-12-15T13:16:22.610Z,72.80
2022-12-15T13:19:11.615Z,69.50
2022-12-15T13:21:48.557Z,65.10
2022-12-15T13:24:40.376Z,68.10
2022-12-15T13:27:16.741Z,72.30
2022-12-15T13:30:00.389Z,68.00
2022-12-15T13:33:15.919Z,75.50
2022-12-15T13:35:46.412Z,74.80
2022-12-15T13:38:21.549Z,75.80
2022-12-15T13:40:50.521Z,55.00
2022-12-15T13:43:46.971Z,78.40
2022-12-15T13:46:31.015Z,67.90
2022-12-15T13:49:25.341Z,81.20
2022-12-15T13:52:06.843Z,78.60
2022-12-15T13:54:41.925Z,79.90
2022-12-15T13:57:19.655Z,77.70
2022-12-15T13:59:56.788Z,77.10
2022-12-15T14:02:36.121Z,72.90
2022-12-15T14:05:22.459Z,72.50
2022-12-15T14:10:58.110Z,76.60
2022-12-15T14:13:36.196Z,79.00
2022-12-15T14:16:23.297Z,74.40
2022-12-15T14:19:17.437Z,69.60
2022-12-15T14:21:54.696Z,79.60
2022-12-15T14:27:32.587Z,83.10
2022-12-15T14:30:18.203Z,81.50
2022-12-15T14:32:58.426Z,76.40
2022-12-15T14:35:39.563Z,79.30
2022-12-15T14:38:20.762Z,78.20
2022-12-15T14:40:56.286Z,81.20
2022-12-15T14:43:32.400Z,85.70
2022-12-15T14:46:09.152Z,91.10
2022-12-15T14:48:53.509Z,80.90
2022-12-15T14:51:23.566Z,82.70
2022-12-15T14:53:53.512Z,77.50
2022-12-15T14:56:27.649Z,80.30
2022-12-15T14:59:19.708Z,85.00
2022-12-15T15:02:06.250Z,85.30
2022-12-15T15:03:16.234Z,73.90
2022-12-15T15:04:40.050Z,77.80
2022-12-15T15:07:18.271Z,82.90
2022-12-15T15:09:50.697Z,78.60
2022-12-15T15:12:38.978Z,80.30
2022-12-15T15:15:20.810Z,82.90
2022-12-15T15:17:58.562Z,84.90
2022-12-15T15:20:36.086Z,89.80
2022-12-15T15:23:16.818Z,91.20
2022-12-15T15:25:56.566Z,96.50
2022-12-15T15:28:46.175Z,99.40
2022-12-15T15:31:42.029Z,95.20
2022-12-15T15:34:14.922Z,79.40
2022-12-15T15:36:43.146Z,85.90
2022-12-15T15:39:17.308Z,89.90
2022-12-15T15:41:45.146Z,93.60
2022-12-15T15:44:15.578Z,91.50
2022-12-15T15:46:52.584Z,99.40
2022-12-15T15:49:25.464Z,91.60
2022-12-15T15:51:59.576Z,106.80
2022-12-15T15:54:36.555Z,118.80
2022-12-15T15:57:04.373Z,148.00
2022-12-15T15:59:39.392Z,145.80
2022-12-15T16:02:13.912Z,133.70
2022-12-15T16:04:44.867Z,148.50
2022-12-15T16:07:29.542Z,185.40
2022-12-15T16:09:57.805Z,174.10
2022-12-15T16:12:36.684Z,191.40
2022-12-15T16:15:21.744Z,187.70
2022-12-15T16:17:54.694Z,176.10
2022-12-15T16:20:29.235Z,148.20
2022-12-15T16:23:07.565Z,144.70
2022-12-15T16:25:50.582Z,134.00
2022-12-15T16:28:29.162Z,122.20
2022-12-15T16:31:02.627Z,125.10
2022-12-15T16:33:30.550Z,113.80
2022-12-15T16:36:02.698Z,115.30
2022-12-15T16:38:36.229Z,112.50
2022-12-15T16:41:12.953Z,114.70
2022-12-15T16:43:48.074Z,113.50
2022-12-15T16:46:20.751Z,105.00
2022-12-15T16:48:48.900Z,107.50
2022-12-15T16:51:39.026Z,100.00
2022-12-15T16:54:33.880Z,95.70
2022-12-15T16:57:06.455Z,92.80
2022-12-15T16:59:35.719Z,99.30
2022-12-15T17:02:35.935Z,92.70
2022-12-15T17:05:04.201Z,101.40
2022-12-15T17:07:36.420Z,89.10
2022-12-15T17:10:07.592Z,96.30
2022-12-15T17:12:39.935Z,93.60
2022-12-15T17:15:29.105Z,98.70
2022-12-15T17:18:01.269Z,86.60
2022-12-15T17:20:33.867Z,93.10
2022-12-15T17:23:12.711Z,96.90
2022-12-15T17:26:21.012Z,89.20
2022-12-15T17:28:40.765Z,86.50
2022-12-15T17:31:18.639Z,80.90
2022-12-15T17:33:50.928Z,82.30
2022-12-15T17:36:28.257Z,79.80
2022-12-15T17:39:01.714Z,83.40
2022-12-15T17:41:58.760Z,89.80
2022-12-15T17:44:40.826Z,93.70
2022-12-15T17:47:17.741Z,104.00
2022-12-15T17:49:51.547Z,116.80
2022-12-15T17:52:31.530Z,123.70
2022-12-15T17:55:19.227Z,119.90
2022-12-15T17:57:52.164Z,120.50
2022-12-15T18:00:32.724Z,124.10
2022-12-15T18:03:04.786Z,120.30
2022-12-15T18:05:33.278Z,95.10
2022-12-15T18:08:19.439Z,90.10
2022-12-15T18:10:53.629Z,89.60
2022-12-15T18:13:35.286Z,98.40
2022-12-15T18:16:10.190Z,93.20
2022-12-15T18:18:38.513Z,90.90
2022-12-15T18:21:18.178Z,81.80
2022-12-15T18:23:51.873Z,88.60
2022-12-15T18:28:53.747Z,87.80
2022-12-15T18:31:31.887Z,85.50
2022-12-15T18:34:04.345Z,85.00
2022-12-15T18:36:39.510Z,78.40
2022-12-15T18:39:21.770Z,82.90
2022-12-15T18:41:54.877Z,85.60
2022-12-15T18:44:31.712Z,77.30
2022-12-15T18:47:03.995Z,96.30
2022-12-15T18:49:32.118Z,81.80
2022-12-15T18:52:02.844Z,80.40
2022-12-15T18:54:34.156Z,76.90
2022-12-15T18:57:02.217Z,77.40
2022-12-15T18:59:33.228Z,76.10
2022-12-15T19:02:01.482Z,71.30
2022-12-15T19:04:29.937Z,69.40
2022-12-15T19:06:57.788Z,70.80
2022-12-15T19:09:25.855Z,67.60
2022-12-15T19:12:12.314Z,71.00
2022-12-15T19:14:40.151Z,73.10
2022-12-15T19:17:34.932Z,68.20
2022-12-15T19:22:53.452Z,72.00
2022-12-15T19:25:27.837Z,77.70
2022-12-15T19:27:59.258Z,74.50
2022-12-15T19:30:41.579Z,73.80
2022-12-15T19:33:15.353Z,77.00
2022-12-15T19:35:47.143Z,72.20
2022-12-15T19:38:25.616Z,71.10
2022-12-15T19:40:57.876Z,68.50
2022-12-15T19:43:33.642Z,72.60
2022-12-15T19:46:02.041Z,69.50
2022-12-15T19:48:33.798Z,74.60
2022-12-15T19:51:01.651Z,71.50
2022-12-15T19:53:37.925Z,62.40
2022-12-15T19:56:18.962Z,69.80
2022-12-15T19:58:46.946Z,67.40
2022-12-15T20:01:21.313Z,61.20
2022-12-15T20:03:55.304Z,67.10
2022-12-15T20:06:28.661Z,62.00
2022-12-15T20:08:58.774Z,69.30
2022-12-15T20:11:33.133Z,67.10
2022-12-15T20:14:15.435Z,67.40
2022-12-15T20:16:50.537Z,65.50
2022-12-15T20:19:18.808Z,66.90
2022-12-15T20:21:46.980Z,70.60
2022-12-15T20:24:19.792Z,75.80
2022-12-15T20:26:50.753Z,77.10
2022-12-15T20:29:36.152Z,82.70
2022-12-15T20:32:21.085Z,79.10
2022-12-15T20:34:51.042Z,74.90
2022-12-15T20:37:27.261Z,67.20
2022-12-15T20:39:57.683Z,72.20
2022-12-15T20:42:28.815Z,72.90
2022-12-15T20:44:57.419Z,74.80
2022-12-15T20:47:30.950Z,73.80
2022-12-15T20:49:59.595Z,75.60
2022-12-15T20:52:28.098Z,76.10
2022-12-15T20:54:57.587Z,73.80
2022-12-15T20:57:25.548Z,74.30
2022-12-15T20:59:56.236Z,71.20
2022-12-15T21:02:24.605Z,64.20
2022-12-15T21:05:00.128Z,73.50
2022-12-15T21:07:28.092Z,69.50
2022-12-15T21:09:55.959Z,77.80
2022-12-15T21:12:30.231Z,78.10
2022-12-15T21:15:03.137Z,78.90
2022-12-15T21:17:31.103Z,74.40
2022-12-15T21:19:59.178Z,81.90
2022-12-15T21:22:34.011Z,80.50
2022-12-15T21:25:21.124Z,82.60
2022-12-15T21:27:49.318Z,79.90
2022-12-15T21:30:24.931Z,78.80
2022-12-15T21:32:57.526Z,82.80
2022-12-15T21:35:30.177Z,82.20
2022-12-15T21:38:02.099Z,82.90
2022-12-15T21:40:30.289Z,84.00
2022-12-15T21:43:03.219Z,82.90
2022-12-15T21:45:36.411Z,67.30
2022-12-15T21:48:23.091Z,83.70
2022-12-15T21:50:50.985Z,80.60
2022-12-15T21:53:19.873Z,91.00
2022-12-15T21:55:49.789Z,95.70
2022-12-15T21:58:21.033Z,91.00
2022-12-15T22:00:48.883Z,88.30
2022-12-15T22:03:16.854Z,88.50
2022-12-15T22:05:44.791Z,93.10
2022-12-15T22:08:19.053Z,87.80
2022-12-15T22:10:49.172Z,87.90
2022-12-15T22:13:22.258Z,81.70
2022-12-15T22:15:51.588Z,84.40
2022-12-15T22:18:20.180Z,101.10
2022-12-15T22:20:50.034Z,94.70
2022-12-15T22:23:19.379Z,79.50
2022-12-15T22:25:51.461Z,72.70
2022-12-15T22:28:25.946Z,83.90
2022-12-15T22:30:56.128Z,75.70
2022-12-15T22:33:26.410Z,70.00
2022-12-15T22:35:56.141Z,72.80
2022-12-15T22:38:24.775Z,73.20
2022-12-15T22:40:55.670Z,74.00
2022-12-15T22:43:39.660Z,74.40
2022-12-15T22:46:13.398Z,74.80
2022-12-15T22:48:44.997Z,68.30
2022-12-15T22:51:14.830Z,70.90
2022-12-15T22:53:43.416Z,68.70
2022-12-15T22:56:23.459Z,71.30
2022-12-15T22:58:58.501Z,69.90
2022-12-15T23:01:28.027Z,76.00
2022-12-15T23:03:56.133Z,64.60
2022-12-15T23:06:26.601Z,69.50
2022-12-15T23:08:56.313Z,72.40
2022-12-15T23:11:37.313Z,68.60
2022-12-15T23:14:07.224Z,69.50
2022-12-15T23:16:37.502Z,67.80
2022-12-15T23:19:08.277Z,72.70
2022-12-15T23:21:36.732Z,80.00
2022-12-15T23:24:04.976Z,75.10
2022-12-15T23:26:33.316Z,74.40
2022-12-15T23:29:01.359Z,77.10
2022-12-15T23:31:29.492Z,77.60
2022-12-15T23:33:57.708Z,74.50
2022-12-15T23:36:25.782Z,75.50
2022-12-15T23:38:55.586Z,75.60
2022-12-15T23:41:23.448Z,76.10
2022-12-15T23:43:51.560Z,73.40
2022-12-15T23:46:20.116Z,77.00
2022-12-15T23:48:48.260Z,79.00
2022-12-15T23:51:18.831Z,65.30
2022-12-15T23:53:48.262Z,80.10
2022-12-15T23:56:19.868Z,73.30
2022-12-15T23:58:53.966Z,71.00
